Relevés horaires Bouveret (Suisse)


Relevés horaires à Bouveret - Mercredi 14 Mars 2018
Heure UTC1 Température [°C] Vent [km/h] Hum. [%] Pres.4 [hPa] Visi. [Km] Nébu. [octa] Préc.5 [mm] Cond.
2m. Res. Ros. Dir.2 Vit. Moy. Raf.3
23:00 6.8 5.9 4.2 NNO 5.6 -- 14.8 83 1003.8(-1.6/3h) -- -- -- --
22:00 5.2 5.2 1.6 SSO 3.7 -- 13.0 78 1004.4(-1.9/3h) -- -- -- --
21:00 6.6 5.7 2.1 OSO 5.6 -- 14.8 73 1005(-2.0/3h) -- -- -- --
20:00 6.7 6.7 3.1 NNO 3.7 -- 14.8 78 1005.5(-1.8/3h) -- -- -- --
19:00 6.5 6.5 2.3 SSE 1.9 -- 7.4 74 1006.2(-1.7/3h) -- -- -- --
18:00 7.0 6.1 3.4 SSE 5.6 -- 13.0 78 1007(-2.0/3h) -- -- -- --
17:00 7.3 7.3 4.1 NNO 1.9 -- 5.6 80 1007.3(-2.6/3h) -- -- -- --
16:00 7.4 7.4 2.7 O 3.7 -- 5.6 72 1007.8(-2.5/3h) -- -- -- --
15:00 7.9 7.9 2.0 N 1.9 -- 13.0 66 1009(-2.6/3h) -- -- -- --
14:00 6.7 5.8 3.8 N 5.6 -- 9.3 82 1010.1(-3.0/3h) -- -- -- --
13:00 6.6 5.2 3.6 ONO 7.4 -- 13.0 81 1010.6(-3.4/3h) -- -- -- --
12:00 6.2 4.7 3.7 NO 7.4 -- 31.5 84 1012(-2.1/3h) -- -- -- --
11:00 6.0 3.6 4.0 NO 11.1 -- 16.7 87 1013.4(-1.1/3h) -- -- -- --
10:00 6.2 3.5 3.8 ONO 13.0 -- 20.4 85 1014.2(-0.6/3h) -- -- -- --
09:00 6.1 2.9 3.4 O 16.7 -- 31.5 83 1014.2(-0.5/3h) -- -- -- --
08:00 6.1 3.8 1.7 SE 11.1 -- 18.5 73 1014.5(-0.2/3h) -- -- -- --
07:00 5.2 2.7 1.7 S 11.1 -- 31.5 78 1015(-0.3/3h) -- -- -- --
06:00 4.1 2.8 1.3 SE 5.6 -- 14.8 82 1015.1(-0.9/3h) -- -- -- --
05:00 3.2 1.2 1.8 SE 7.4 -- 13.0 91 1015.2(-1.3/3h) -- -- -- --
04:00 4.4 4.4 2.6 ESE 3.7 -- 9.3 88 1015.4(-1.2/3h) -- -- -- --
03:00 4.9 3.7 3.3 SSE 5.6 -- 14.8 89 1015.9(-0.9/3h) -- -- -- --
02:00 4.9 3.7 3.7 SSE 5.6 -- 9.3 92 1016.3(-0.7/3h) -- -- -- --
01:00 5.3 4.2 4.3 SE 5.6 -- 9.3 93 1016.5(-0.5/3h) -- -- -- --
00:00 5.6 4.5 4.6 SSE 5.6 -- 13.0 93 1016.7(0.0/3h) -- -- -- --

1 Coordinated Universal Time. Actuellement il est 00:00 locale et 22:00 UTC.

2 Le vent souffle depuis la direction indiquée vers la direction oposée.

3 Les rafales max. sont disponible 40 min après l'heure du relevé.

4 Pour les stations d'altitude (plus de 600m) le géopotentiel du niveau le plus proche de la pression obligatoire est indiqué.

5 Les stations disposant d'un diffuseur peuvent indiquer "trace". Cela signifie que des précipitations ont touchés le sol mais que la quantité est inférieure à 0.1 mm.

Copyright

Les données affichées sur cette page sont la propriété exclusive de Météo Suisse.

Récapitulatif de la journée
Température [°C] Vent [km/h] Ensoleillement4 [h] Precipitations totale5 [mm] Pression [Hpa]
Min1 Max.2 Moy.3 Max. Min Max.
3.2 8.5 0 31.5 0 h 0 min 0 1003.8 1016.7

1 Température minimale relevée entre 18:00 UTC la veille et 18:00 UTC le jour donné.

2 Température maximale relevée entre 06:00 UTC le jour donné et 06:00 UTC le lendemain.

3 Vent moyen de la journée basé sur les relevés horaires.

4 Ensoleillement en heures relevé entre 06:00 UTC la veille et 06:00 UTC le jour donné.

5 Précipitations totales tombées entre 06:00 UTC la jour donné et 06:00 UTC le lendemain.

Graphiques horaires